sensor_id;sensor_type;location;lat;lon;timestamp;pressure;altitude;pressure_sealevel;temperature;humidity
11912;BME280;6016;41.928;25.556;2023-02-16T00:01:14;100438.31;;;3.21;63.22
11912;BME280;6016;41.928;25.556;2023-02-16T00:03:41;100300.22;;;2.75;63.15
11912;BME280;6016;41.928;25.556;2023-02-16T00:06:08;100475.72;;;3.88;62.66
11912;BME280;6016;41.928;25.556;2023-02-16T00:08:39;100479.06;;;3.92;62.22
11912;BME280;6016;41.928;25.556;2023-02-16T00:11:12;100462.72;;;3.87;62.18
11912;BME280;6016;41.928;25.556;2023-02-16T00:13:59;100473.69;;;3.95;62.22
11912;BME280;6016;41.928;25.556;2023-02-16T00:16:27;100475.53;;;3.93;62.42
11912;BME280;6016;41.928;25.556;2023-02-16T00:18:54;100472.09;;;3.91;62.20
11912;BME280;6016;41.928;25.556;2023-02-16T00:21:21;100474.19;;;3.83;62.74
11912;BME280;6016;41.928;25.556;2023-02-16T00:23:48;100467.38;;;3.78;62.43
11912;BME280;6016;41.928;25.556;2023-02-16T00:26:16;100417.41;;;3.45;62.24
11912;BME280;6016;41.928;25.556;2023-02-16T00:28:44;100423.31;;;3.50;62.95
11912;BME280;6016;41.928;25.556;2023-02-16T00:31:16;100455.69;;;3.66;62.56
11912;BME280;6016;41.928;25.556;2023-02-16T00:33:45;100437.91;;;3.54;62.52
11912;BME280;6016;41.928;25.556;2023-02-16T00:36:12;100470.13;;;3.75;62.42
11912;BME280;6016;41.928;25.556;2023-02-16T00:38:39;100466.00;;;3.70;62.47
11912;BME280;6016;41.928;25.556;2023-02-16T00:41:13;100474.69;;;3.70;63.13
11912;BME280;6016;41.928;25.556;2023-02-16T00:44:02;100444.47;;;3.42;62.82
11912;BME280;6016;41.928;25.556;2023-02-16T00:46:28;100466.84;;;3.70;63.19
11912;BME280;6016;41.928;25.556;2023-02-16T00:48:57;100424.56;;;3.40;63.27
11912;BME280;6016;41.928;25.556;2023-02-16T00:51:23;100459.94;;;3.69;63.33
11912;BME280;6016;41.928;25.556;2023-02-16T00:53:50;100461.69;;;3.69;63.19
11912;BME280;6016;41.928;25.556;2023-02-16T00:56:18;100459.94;;;3.69;63.09
11912;BME280;6016;41.928;25.556;2023-02-16T00:58:48;100459.69;;;3.75;62.91
11912;BME280;6016;41.928;25.556;2023-02-16T01:01:17;100427.25;;;3.60;62.31
11912;BME280;6016;41.928;25.556;2023-02-16T01:03:46;100458.44;;;3.63;62.05
11912;BME280;6016;41.928;25.556;2023-02-16T01:06:14;100454.97;;;3.63;62.50
11912;BME280;6016;41.928;25.556;2023-02-16T01:09:08;100433.19;;;3.42;61.71
11912;BME280;6016;41.928;25.556;2023-02-16T01:11:53;100450.84;;;3.57;61.98
11912;BME280;6016;41.928;25.556;2023-02-16T01:14:20;100450.34;;;3.47;61.52
11912;BME280;6016;41.928;25.556;2023-02-16T01:16:47;100446.88;;;3.47;62.23
11912;BME280;6016;41.928;25.556;2023-02-16T01:19:14;100451.41;;;3.43;62.46
11912;BME280;6016;41.928;25.556;2023-02-16T01:21:42;100444.28;;;3.47;62.40
11912;BME280;6016;41.928;25.556;2023-02-16T01:24:08;100445.31;;;3.43;62.57
11912;BME280;6016;41.928;25.556;2023-02-16T01:26:38;100423.28;;;3.28;62.87
11912;BME280;6016;41.928;25.556;2023-02-16T01:29:06;100375.88;;;2.95;63.20
11912;BME280;6016;41.928;25.556;2023-02-16T01:31:36;100443.63;;;3.42;63.20
11912;BME280;6016;41.928;25.556;2023-02-16T01:34:03;100435.00;;;3.40;62.64
11912;BME280;6016;41.928;25.556;2023-02-16T01:36:33;100432.00;;;3.27;63.20
11912;BME280;6016;41.928;25.556;2023-02-16T01:39:02;100438.28;;;3.22;62.84
11912;BME280;6016;41.928;25.556;2023-02-16T01:41:41;100415.56;;;3.02;63.37
11912;BME280;6016;41.928;25.556;2023-02-16T01:44:13;100446.84;;;3.26;63.36
11912;BME280;6016;41.928;25.556;2023-02-16T01:46:43;100430.69;;;3.16;63.33
11912;BME280;6016;41.928;25.556;2023-02-16T01:49:12;100371.63;;;2.69;63.85
11912;BME280;6016;41.928;25.556;2023-02-16T01:51:48;100444.16;;;3.28;63.20
11912;BME280;6016;41.928;25.556;2023-02-16T01:54:27;100436.56;;;3.21;62.94
11912;BME280;6016;41.928;25.556;2023-02-16T01:57:00;100450.19;;;3.30;63.34
11912;BME280;6016;41.928;25.556;2023-02-16T01:59:30;100450.97;;;3.32;63.25
11912;BME280;6016;41.928;25.556;2023-02-16T02:02:02;100443.91;;;3.34;62.84
11912;BME280;6016;41.928;25.556;2023-02-16T02:04:35;100438.72;;;3.34;62.88
11912;BME280;6016;41.928;25.556;2023-02-16T02:07:27;100441.31;;;3.34;62.90
11912;BME280;6016;41.928;25.556;2023-02-16T02:10:02;100443.97;;;3.32;62.87
11912;BME280;6016;41.928;25.556;2023-02-16T02:12:36;100446.75;;;3.28;63.14
11912;BME280;6016;41.928;25.556;2023-02-16T02:15:07;100389.81;;;2.94;63.50
11912;BME280;6016;41.928;25.556;2023-02-16T02:17:34;100445.13;;;3.25;63.77
11912;BME280;6016;41.928;25.556;2023-02-16T02:20:07;100444.97;;;3.30;63.84
11912;BME280;6016;41.928;25.556;2023-02-16T02:29:06;100439.97;;;3.23;63.70
11912;BME280;6016;41.928;25.556;2023-02-16T02:31:46;100431.97;;;3.28;63.84
11912;BME280;6016;41.928;25.556;2023-02-16T02:34:25;100434.53;;;3.30;64.06
11912;BME280;6016;41.928;25.556;2023-02-16T02:37:02;100433.63;;;3.31;63.86
11912;BME280;6016;41.928;25.556;2023-02-16T02:39:37;100435.38;;;3.30;64.18
11912;BME280;6016;41.928;25.556;2023-02-16T02:42:15;100431.19;;;3.26;63.18
11912;BME280;6016;41.928;25.556;2023-02-16T02:44:48;100347.41;;;2.67;63.23
11912;BME280;6016;41.928;25.556;2023-02-16T02:47:16;100444.09;;;3.29;63.42
11912;BME280;6016;41.928;25.556;2023-02-16T02:49:50;100421.97;;;3.17;62.85
11912;BME280;6016;41.928;25.556;2023-02-16T02:52:17;100414.63;;;3.05;62.47
11912;BME280;6016;41.928;25.556;2023-02-16T02:54:44;100439.13;;;3.23;62.67
11912;BME280;6016;41.928;25.556;2023-02-16T02:57:32;100430.91;;;3.10;62.01
11912;BME280;6016;41.928;25.556;2023-02-16T03:00:26;100418.31;;;2.99;62.71
11912;BME280;6016;41.928;25.556;2023-02-16T03:03:10;100393.25;;;2.71;63.26
11912;BME280;6016;41.928;25.556;2023-02-16T03:05:43;100450.88;;;3.11;62.92
11912;BME280;6016;41.928;25.556;2023-02-16T03:08:13;100426.78;;;2.80;62.88
11912;BME280;6016;41.928;25.556;2023-02-16T03:10:44;100145.63;;;1.14;62.94
11912;BME280;6016;41.928;25.556;2023-02-16T03:13:34;100423.22;;;2.83;62.17
11912;BME280;6016;41.928;25.556;2023-02-16T03:16:08;100455.75;;;2.97;61.98
11912;BME280;6016;41.928;25.556;2023-02-16T03:18:37;100425.25;;;2.75;62.43
11912;BME280;6016;41.928;25.556;2023-02-16T03:21:24;100446.56;;;2.86;62.80
11912;BME280;6016;41.928;25.556;2023-02-16T03:24:12;100441.63;;;2.78;62.49
11912;BME280;6016;41.928;25.556;2023-02-16T03:26:58;100452.34;;;2.71;62.29
11912;BME280;6016;41.928;25.556;2023-02-16T03:29:44;100238.34;;;1.38;62.82
11912;BME280;6016;41.928;25.556;2023-02-16T03:32:13;100453.44;;;2.63;63.89
11912;BME280;6016;41.928;25.556;2023-02-16T03:34:40;100381.94;;;2.24;64.21
11912;BME280;6016;41.928;25.556;2023-02-16T03:37:07;100449.31;;;2.58;64.28
11912;BME280;6016;41.928;25.556;2023-02-16T03:39:34;100397.53;;;2.24;64.54
11912;BME280;6016;41.928;25.556;2023-02-16T03:42:22;100417.78;;;2.42;64.46
11912;BME280;6016;41.928;25.556;2023-02-16T03:44:49;100446.38;;;2.67;64.78
11912;BME280;6016;41.928;25.556;2023-02-16T03:47:18;100337.31;;;2.10;64.05
11912;BME280;6016;41.928;25.556;2023-02-16T03:49:45;100443.56;;;2.73;63.90
11912;BME280;6016;41.928;25.556;2023-02-16T03:52:12;100442.66;;;2.74;63.91
11912;BME280;6016;41.928;25.556;2023-02-16T03:54:38;100438.41;;;2.72;63.86
11912;BME280;6016;41.928;25.556;2023-02-16T03:57:05;100430.75;;;2.67;64.07
11912;BME280;6016;41.928;25.556;2023-02-16T03:59:32;100429.09;;;2.64;64.80
11912;BME280;6016;41.928;25.556;2023-02-16T04:01:59;100436.66;;;2.72;64.66
11912;BME280;6016;41.928;25.556;2023-02-16T04:04:27;100446.88;;;2.77;64.24
11912;BME280;6016;41.928;25.556;2023-02-16T04:06:54;99874.78;;;-0.66;64.01
11912;BME280;6016;41.928;25.556;2023-02-16T04:09:21;100379.03;;;2.32;63.88
11912;BME280;6016;41.928;25.556;2023-02-16T04:11:47;100452.09;;;2.77;63.45
11912;BME280;6016;41.928;25.556;2023-02-16T04:14:32;100452.34;;;2.71;63.85
11912;BME280;6016;41.928;25.556;2023-02-16T04:16:59;100447.00;;;2.74;64.46
11912;BME280;6016;41.928;25.556;2023-02-16T04:19:27;100452.50;;;2.66;63.42
11912;BME280;6016;41.928;25.556;2023-02-16T04:21:54;100452.50;;;2.66;64.03
11912;BME280;6016;41.928;25.556;2023-02-16T04:24:22;100403.94;;;2.16;63.66
11912;BME280;6016;41.928;25.556;2023-02-16T04:26:48;100372.22;;;2.04;63.05
11912;BME280;6016;41.928;25.556;2023-02-16T04:29:15;100454.88;;;2.48;63.38
11912;BME280;6016;41.928;25.556;2023-02-16T04:31:42;100448.38;;;2.35;64.31
11912;BME280;6016;41.928;25.556;2023-02-16T04:34:09;100450.44;;;2.25;64.02
11912;BME280;6016;41.928;25.556;2023-02-16T04:36:37;100455.00;;;2.18;64.36
11912;BME280;6016;41.928;25.556;2023-02-16T04:39:04;100463.53;;;2.23;65.33
11912;BME280;6016;41.928;25.556;2023-02-16T04:41:31;100459.94;;;2.26;64.67
11912;BME280;6016;41.928;25.556;2023-02-16T04:43:58;100443.03;;;2.13;64.90
11912;BME280;6016;41.928;25.556;2023-02-16T04:46:24;100472.81;;;2.31;64.80
11912;BME280;6016;41.928;25.556;2023-02-16T04:48:51;100460.66;;;2.31;65.22
11912;BME280;6016;41.928;25.556;2023-02-16T04:51:18;100343.25;;;1.63;64.71
11912;BME280;6016;41.928;25.556;2023-02-16T04:53:46;100451.41;;;2.22;64.75
11912;BME280;6016;41.928;25.556;2023-02-16T04:56:13;100473.19;;;2.45;65.03
11912;BME280;6016;41.928;25.556;2023-02-16T04:58:40;100486.84;;;2.52;64.83
11912;BME280;6016;41.928;25.556;2023-02-16T05:01:07;100485.97;;;2.53;64.53
11912;BME280;6016;41.928;25.556;2023-02-16T05:03:34;100484.00;;;2.60;64.73
11912;BME280;6016;41.928;25.556;2023-02-16T05:06:01;100486.59;;;2.60;63.83
11912;BME280;6016;41.928;25.556;2023-02-16T05:08:28;100490.75;;;2.65;63.33
11912;BME280;6016;41.928;25.556;2023-02-16T05:10:56;100483.09;;;2.61;63.06
11912;BME280;6016;41.928;25.556;2023-02-16T05:13:40;100485.72;;;2.59;62.47
11912;BME280;6016;41.928;25.556;2023-02-16T05:16:24;100308.25;;;1.46;62.70
11912;BME280;6016;41.928;25.556;2023-02-16T05:18:51;100490.19;;;2.56;62.18
11912;BME280;6016;41.928;25.556;2023-02-16T05:21:18;100413.63;;;2.10;62.04
11912;BME280;6016;41.928;25.556;2023-02-16T05:23:57;100491.97;;;2.55;62.01
11912;BME280;6016;41.928;25.556;2023-02-16T05:26:26;100495.56;;;2.51;62.32
11912;BME280;6016;41.928;25.556;2023-02-16T05:28:54;100472.81;;;2.31;61.07
11912;BME280;6016;41.928;25.556;2023-02-16T05:31:22;100465.53;;;2.15;61.40
11912;BME280;6016;41.928;25.556;2023-02-16T05:33:49;100481.59;;;2.28;62.22
11912;BME280;6016;41.928;25.556;2023-02-16T05:36:16;100501.19;;;2.38;62.25
11912;BME280;6016;41.928;25.556;2023-02-16T05:38:43;100503.78;;;2.38;62.71
11912;BME280;6016;41.928;25.556;2023-02-16T05:41:10;100508.28;;;2.35;62.71
11912;BME280;6016;41.928;25.556;2023-02-16T05:43:38;100511.56;;;2.40;63.07
11912;BME280;6016;41.928;25.556;2023-02-16T05:46:08;100467.13;;;2.19;62.42
11912;BME280;6016;41.928;25.556;2023-02-16T05:48:35;100506.94;;;2.48;62.14
11912;BME280;6016;41.928;25.556;2023-02-16T05:51:02;100515.66;;;2.47;62.40
11912;BME280;6016;41.928;25.556;2023-02-16T05:53:28;100473.19;;;2.20;62.66
11912;BME280;6016;41.928;25.556;2023-02-16T05:55:55;100514.53;;;2.55;63.10
11912;BME280;6016;41.928;25.556;2023-02-16T05:58:22;100517.00;;;2.59;62.67
11912;BME280;6016;41.928;25.556;2023-02-16T06:00:50;100519.22;;;2.70;62.65
11912;BME280;6016;41.928;25.556;2023-02-16T06:03:17;100519.69;;;2.81;63.11
11912;BME280;6016;41.928;25.556;2023-02-16T06:05:44;100521.09;;;2.90;62.48
11912;BME280;6016;41.928;25.556;2023-02-16T06:08:11;100525.84;;;3.04;61.50
11912;BME280;6016;41.928;25.556;2023-02-16T06:10:37;100523.44;;;3.22;61.40
11912;BME280;6016;41.928;25.556;2023-02-16T06:13:04;100472.75;;;3.07;60.84
11912;BME280;6016;41.928;25.556;2023-02-16T06:15:31;100529.34;;;3.51;60.83
11912;BME280;6016;41.928;25.556;2023-02-16T06:17:59;100349.25;;;2.39;60.84
11912;BME280;6016;41.928;25.556;2023-02-16T06:20:27;100528.19;;;3.58;60.75
11912;BME280;6016;41.928;25.556;2023-02-16T06:22:54;100535.63;;;3.69;61.39
11912;BME280;6016;41.928;25.556;2023-02-16T06:25:21;100541.44;;;3.76;60.34
11912;BME280;6016;41.928;25.556;2023-02-16T06:27:48;100548.56;;;3.48;60.06
11912;BME280;6016;41.928;25.556;2023-02-16T06:30:17;100544.53;;;3.40;60.26
11912;BME280;6016;41.928;25.556;2023-02-16T06:32:44;100537.28;;;3.48;59.93
11912;BME280;6016;41.928;25.556;2023-02-16T06:35:12;100545.47;;;3.61;59.98
11912;BME280;6016;41.928;25.556;2023-02-16T06:37:38;100546.28;;;3.63;59.96
11912;BME280;6016;41.928;25.556;2023-02-16T06:40:06;100544.91;;;3.52;59.70
11912;BME280;6016;41.928;25.556;2023-02-16T06:42:34;100551.47;;;3.41;60.47
11912;BME280;6016;41.928;25.556;2023-02-16T06:45:01;100550.81;;;3.58;60.70
11912;BME280;6016;41.928;25.556;2023-02-16T06:47:28;100469.34;;;3.29;59.87
11912;BME280;6016;41.928;25.556;2023-02-16T06:49:55;100527.00;;;3.67;59.69
11912;BME280;6016;41.928;25.556;2023-02-16T06:52:24;100536.44;;;3.70;59.46
11912;BME280;6016;41.928;25.556;2023-02-16T06:54:50;100536.75;;;3.84;59.43
11912;BME280;6016;41.928;25.556;2023-02-16T06:57:17;100550.84;;;4.25;59.52
11912;BME280;6016;41.928;25.556;2023-02-16T06:59:44;100551.06;;;4.61;58.73
11912;BME280;6016;41.928;25.556;2023-02-16T07:02:11;100555.13;;;5.09;57.62
11912;BME280;6016;41.928;25.556;2023-02-16T07:04:38;100554.22;;;5.86;55.71
11912;BME280;6016;41.928;25.556;2023-02-16T07:07:05;100512.84;;;6.83;52.83
11912;BME280;6016;41.928;25.556;2023-02-16T07:09:34;100542.63;;;8.28;49.75
11912;BME280;6016;41.928;25.556;2023-02-16T07:12:02;100538.59;;;9.40;46.98
11912;BME280;6016;41.928;25.556;2023-02-16T07:14:29;100528.50;;;10.16;44.94
11912;BME280;6016;41.928;25.556;2023-02-16T07:16:57;100473.22;;;10.02;44.62
11912;BME280;6016;41.928;25.556;2023-02-16T07:19:28;100537.66;;;10.38;44.16
11912;BME280;6016;41.928;25.556;2023-02-16T07:21:58;100517.53;;;10.50;44.08
11912;BME280;6016;41.928;25.556;2023-02-16T07:24:25;100525.03;;;10.56;43.62
11912;BME280;6016;41.928;25.556;2023-02-16T07:26:53;100542.13;;;10.50;43.93
11912;BME280;6016;41.928;25.556;2023-02-16T07:29:21;100538.41;;;10.53;45.22
11912;BME280;6016;41.928;25.556;2023-02-16T07:31:47;100535.16;;;11.27;43.86
11912;BME280;6016;41.928;25.556;2023-02-16T07:34:15;100517.44;;;12.62;40.64
11912;BME280;6016;41.928;25.556;2023-02-16T07:36:42;100528.78;;;13.88;38.06
11912;BME280;6016;41.928;25.556;2023-02-16T07:39:10;100517.50;;;14.61;37.42
11912;BME280;6016;41.928;25.556;2023-02-16T07:41:37;100461.31;;;15.38;35.66
11912;BME280;6016;41.928;25.556;2023-02-16T07:44:05;100429.03;;;15.92;34.86
11912;BME280;6016;41.928;25.556;2023-02-16T07:46:32;100489.88;;;16.54;33.72
11912;BME280;6016;41.928;25.556;2023-02-16T07:48:59;100497.53;;;16.67;33.19
11912;BME280;6016;41.928;25.556;2023-02-16T07:51:27;100517.34;;;17.40;33.67
11912;BME280;6016;41.928;25.556;2023-02-16T07:53:55;100513.53;;;17.89;32.43
11912;BME280;6016;41.928;25.556;2023-02-16T07:56:23;100506.81;;;18.21;31.33
11912;BME280;6016;41.928;25.556;2023-02-16T07:58:50;100431.69;;;17.80;31.59
11912;BME280;6016;41.928;25.556;2023-02-16T08:01:19;100514.34;;;17.71;32.57
11912;BME280;6016;41.928;25.556;2023-02-16T08:03:46;100517.94;;;17.06;33.12
11912;BME280;6016;41.928;25.556;2023-02-16T08:06:13;100524.34;;;16.66;33.99
11912;BME280;6016;41.928;25.556;2023-02-16T08:08:40;100517.66;;;16.42;35.26
11912;BME280;6016;41.928;25.556;2023-02-16T08:11:08;100521.47;;;16.20;35.02
11912;BME280;6016;41.928;25.556;2023-02-16T08:13:35;100516.56;;;16.05;36.03
11912;BME280;6016;41.928;25.556;2023-02-16T08:16:06;100494.03;;;16.09;36.72
11912;BME280;6016;41.928;25.556;2023-02-16T08:18:34;100506.47;;;16.28;35.88
11912;BME280;6016;41.928;25.556;2023-02-16T08:21:06;100509.81;;;16.11;36.10
11912;BME280;6016;41.928;25.556;2023-02-16T08:23:38;100422.53;;;15.26;37.08
11912;BME280;6016;41.928;25.556;2023-02-16T08:26:07;100530.06;;;15.53;38.20
11912;BME280;6016;41.928;25.556;2023-02-16T08:28:35;100517.91;;;15.70;37.66
11912;BME280;6016;41.928;25.556;2023-02-16T08:31:03;100512.59;;;15.70;38.08
11912;BME280;6016;41.928;25.556;2023-02-16T08:33:31;100512.31;;;15.73;37.85
11912;BME280;6016;41.928;25.556;2023-02-16T08:36:00;100420.09;;;15.03;38.15
11912;BME280;6016;41.928;25.556;2023-02-16T08:38:27;100515.09;;;15.71;38.80
11912;BME280;6016;41.928;25.556;2023-02-16T08:40:57;100508.97;;;15.81;39.74
11912;BME280;6016;41.928;25.556;2023-02-16T08:43:23;100514.97;;;15.83;38.19
11912;BME280;6016;41.928;25.556;2023-02-16T08:45:51;100515.03;;;15.93;38.67
11912;BME280;6016;41.928;25.556;2023-02-16T08:48:18;100507.91;;;16.13;38.53
11912;BME280;6016;41.928;25.556;2023-02-16T08:50:47;100513.34;;;16.11;36.94
11912;BME280;6016;41.928;25.556;2023-02-16T08:53:19;100512.09;;;16.25;38.15
11912;BME280;6016;41.928;25.556;2023-02-16T08:55:52;100511.63;;;16.50;37.97
11912;BME280;6016;41.928;25.556;2023-02-16T08:58:18;100491.44;;;16.57;36.67
11912;BME280;6016;41.928;25.556;2023-02-16T09:00:46;100521.66;;;16.76;36.97
11912;BME280;6016;41.928;25.556;2023-02-16T09:03:13;100495.34;;;16.53;36.23
11912;BME280;6016;41.928;25.556;2023-02-16T09:05:40;100514.22;;;16.79;36.76
11912;BME280;6016;41.928;25.556;2023-02-16T09:08:07;100457.13;;;16.34;36.58
11912;BME280;6016;41.928;25.556;2023-02-16T09:10:35;100515.97;;;16.51;37.82
11912;BME280;6016;41.928;25.556;2023-02-16T09:13:03;100470.28;;;16.36;37.84
11912;BME280;6016;41.928;25.556;2023-02-16T09:15:31;100509.56;;;17.01;37.72
11912;BME280;6016;41.928;25.556;2023-02-16T09:17:58;100407.13;;;16.66;36.03
11912;BME280;6016;41.928;25.556;2023-02-16T09:20:25;100509.94;;;17.34;37.70
11912;BME280;6016;41.928;25.556;2023-02-16T09:22:53;100436.88;;;16.61;35.61
11912;BME280;6016;41.928;25.556;2023-02-16T09:25:20;100499.34;;;16.77;37.64
11912;BME280;6016;41.928;25.556;2023-02-16T09:27:50;100467.75;;;16.44;36.22
11912;BME280;6016;41.928;25.556;2023-02-16T09:30:17;100466.69;;;15.97;36.54
11912;BME280;6016;41.928;25.556;2023-02-16T09:32:45;100521.63;;;15.38;38.01
11912;BME280;6016;41.928;25.556;2023-02-16T09:35:12;100309.78;;;13.86;39.82
11912;BME280;6016;41.928;25.556;2023-02-16T09:37:40;100511.84;;;15.07;38.07
11912;BME280;6016;41.928;25.556;2023-02-16T09:40:09;100504.03;;;15.05;38.30
11912;BME280;6016;41.928;25.556;2023-02-16T09:42:53;100474.13;;;15.13;38.10
11912;BME280;6016;41.928;25.556;2023-02-16T09:45:24;100477.09;;;15.30;38.42
11912;BME280;6016;41.928;25.556;2023-02-16T09:47:55;100495.50;;;15.53;39.58
11912;BME280;6016;41.928;25.556;2023-02-16T09:50:25;100367.84;;;14.72;38.71
11912;BME280;6016;41.928;25.556;2023-02-16T09:52:57;100441.97;;;15.16;38.77
11912;BME280;6016;41.928;25.556;2023-02-16T09:55:29;100490.25;;;14.90;40.49
11912;BME280;6016;41.928;25.556;2023-02-16T09:58:05;100480.41;;;15.12;39.71
11912;BME280;6016;41.928;25.556;2023-02-16T10:00:43;100445.81;;;15.02;39.92
11912;BME280;6016;41.928;25.556;2023-02-16T10:03:30;100484.09;;;14.90;40.54
11912;BME280;6016;41.928;25.556;2023-02-16T10:06:08;100474.91;;;14.94;41.52
11912;BME280;6016;41.928;25.556;2023-02-16T10:08:44;100429.69;;;14.84;41.28
11912;BME280;6016;41.928;25.556;2023-02-16T10:11:15;100458.19;;;15.23;40.75
11912;BME280;6016;41.928;25.556;2023-02-16T10:14:04;100461.03;;;15.31;40.92
11912;BME280;6016;41.928;25.556;2023-02-16T10:16:34;100455.38;;;15.15;41.40
11912;BME280;6016;41.928;25.556;2023-02-16T10:19:06;100452.81;;;14.41;43.95
11912;BME280;6016;41.928;25.556;2023-02-16T10:21:43;100452.31;;;14.79;42.57
11912;BME280;6016;41.928;25.556;2023-02-16T10:24:12;100447.53;;;14.72;42.11
11912;BME280;6016;41.928;25.556;2023-02-16T10:26:42;100438.53;;;14.63;42.99
11912;BME280;6016;41.928;25.556;2023-02-16T10:29:15;100438.47;;;14.75;43.11
11912;BME280;6016;41.928;25.556;2023-02-16T10:31:47;100428.78;;;15.05;41.97
11912;BME280;6016;41.928;25.556;2023-02-16T10:34:19;100430.41;;;15.37;42.38
11912;BME280;6016;41.928;25.556;2023-02-16T10:37:05;100399.44;;;15.26;44.17
11912;BME280;6016;41.928;25.556;2023-02-16T10:39:42;100383.09;;;15.60;42.57
11912;BME280;6016;41.928;25.556;2023-02-16T10:42:17;100419.22;;;16.02;40.96
11912;BME280;6016;41.928;25.556;2023-02-16T10:44:53;100420.59;;;16.07;41.32
11912;BME280;6016;41.928;25.556;2023-02-16T10:47:29;100257.44;;;14.99;42.11
11912;BME280;6016;41.928;25.556;2023-02-16T10:49:58;100411.22;;;16.12;39.96
11912;BME280;6016;41.928;25.556;2023-02-16T10:52:27;100329.31;;;15.67;40.75
11912;BME280;6016;41.928;25.556;2023-02-16T10:54:55;100398.06;;;16.01;40.13
11912;BME280;6016;41.928;25.556;2023-02-16T10:57:25;100387.69;;;15.78;41.15
11912;BME280;6016;41.928;25.556;2023-02-16T10:59:56;100109.34;;;14.03;40.78
11912;BME280;6016;41.928;25.556;2023-02-16T11:02:25;100386.00;;;15.77;40.98
11912;BME280;6016;41.928;25.556;2023-02-16T11:04:53;100391.63;;;15.25;41.29
11912;BME280;6016;41.928;25.556;2023-02-16T11:07:22;100386.31;;;15.25;41.08
11912;BME280;6016;41.928;25.556;2023-02-16T11:09:52;100326.06;;;14.74;41.36
11912;BME280;6016;41.928;25.556;2023-02-16T11:12:26;100349.16;;;14.94;42.06
11912;BME280;6016;41.928;25.556;2023-02-16T11:14:57;100375.91;;;14.71;42.82
11912;BME280;6016;41.928;25.556;2023-02-16T11:17:27;100367.78;;;14.94;42.90
11912;BME280;6016;41.928;25.556;2023-02-16T11:19:57;100351.00;;;14.93;42.05
11912;BME280;6016;41.928;25.556;2023-02-16T11:22:33;100362.41;;;14.43;44.13
11912;BME280;6016;41.928;25.556;2023-02-16T11:25:22;100356.66;;;14.38;44.94
11912;BME280;6016;41.928;25.556;2023-02-16T11:27:53;100266.13;;;14.00;42.28
11912;BME280;6016;41.928;25.556;2023-02-16T11:30:33;100280.13;;;14.43;40.67
11912;BME280;6016;41.928;25.556;2023-02-16T11:33:03;100295.66;;;14.57;41.20
11912;BME280;6016;41.928;25.556;2023-02-16T11:35:40;100351.81;;;14.74;40.44
11912;BME280;6016;41.928;25.556;2023-02-16T11:38:23;100345.81;;;14.82;43.60
11912;BME280;6016;41.928;25.556;2023-02-16T11:40:52;100337.84;;;14.91;39.84
11912;BME280;6016;41.928;25.556;2023-02-16T11:43:19;100327.50;;;15.08;39.09
11912;BME280;6016;41.928;25.556;2023-02-16T11:45:58;100330.97;;;14.79;39.38
11912;BME280;6016;41.928;25.556;2023-02-16T11:48:27;100314.91;;;14.40;41.94
11912;BME280;6016;41.928;25.556;2023-02-16T11:50:56;100325.38;;;14.72;39.12
11912;BME280;6016;41.928;25.556;2023-02-16T11:53:25;100319.69;;;15.07;40.28
11912;BME280;6016;41.928;25.556;2023-02-16T11:56:09;100243.81;;;14.53;38.73
11912;BME280;6016;41.928;25.556;2023-02-16T11:58:37;100192.78;;;14.49;41.47
11912;BME280;6016;41.928;25.556;2023-02-16T12:01:17;100262.06;;;15.17;38.36
11912;BME280;6016;41.928;25.556;2023-02-16T12:03:59;100305.28;;;15.58;37.90
11912;BME280;6016;41.928;25.556;2023-02-16T12:06:46;100299.50;;;15.53;37.79
11912;BME280;6016;41.928;25.556;2023-02-16T12:09:23;100262.47;;;14.73;40.25
11912;BME280;6016;41.928;25.556;2023-02-16T12:12:05;100252.56;;;14.85;39.98
11912;BME280;6016;41.928;25.556;2023-02-16T12:14:50;100281.94;;;15.32;39.95
11912;BME280;6016;41.928;25.556;2023-02-16T12:17:32;100248.63;;;15.18;39.83
11912;BME280;6016;41.928;25.556;2023-02-16T12:20:14;100275.47;;;14.86;40.54
11912;BME280;6016;41.928;25.556;2023-02-16T12:22:47;100271.63;;;14.59;41.63
11912;BME280;6016;41.928;25.556;2023-02-16T12:25:26;100265.22;;;14.61;42.75
11912;BME280;6016;41.928;25.556;2023-02-16T12:28:00;100219.94;;;14.12;43.00
11912;BME280;6016;41.928;25.556;2023-02-16T12:30:37;100260.31;;;14.67;42.15
11912;BME280;6016;41.928;25.556;2023-02-16T12:33:24;100257.03;;;14.94;39.69
11912;BME280;6016;41.928;25.556;2023-02-16T12:36:06;100250.72;;;15.15;40.10
11912;BME280;6016;41.928;25.556;2023-02-16T12:38:47;100212.97;;;15.11;39.25
11912;BME280;6016;41.928;25.556;2023-02-16T12:41:27;100256.31;;;15.41;39.17
11912;BME280;6016;41.928;25.556;2023-02-16T12:43:59;100227.47;;;15.37;38.47
11912;BME280;6016;41.928;25.556;2023-02-16T12:46:32;100083.53;;;14.34;38.71
11912;BME280;6016;41.928;25.556;2023-02-16T12:49:06;100246.22;;;15.35;39.21
11912;BME280;6016;41.928;25.556;2023-02-16T12:51:40;100179.28;;;15.02;38.80
11912;BME280;6016;41.928;25.556;2023-02-16T12:54:16;100185.84;;;15.08;38.82
11912;BME280;6016;41.928;25.556;2023-02-16T12:56:47;99915.72;;;13.44;38.54
11912;BME280;6016;41.928;25.556;2023-02-16T12:59:19;100191.38;;;15.34;38.73
11912;BME280;6016;41.928;25.556;2023-02-16T13:01:50;100234.63;;;15.84;38.55
11912;BME280;6016;41.928;25.556;2023-02-16T13:04:23;100227.06;;;15.89;38.60
11912;BME280;6016;41.928;25.556;2023-02-16T13:06:56;100227.03;;;15.99;37.94
11912;BME280;6016;41.928;25.556;2023-02-16T13:09:35;100228.88;;;15.88;38.23
11912;BME280;6016;41.928;25.556;2023-02-16T13:12:07;100226.13;;;15.80;37.17
11912;BME280;6016;41.928;25.556;2023-02-16T13:14:39;100176.84;;;15.38;38.14
11912;BME280;6016;41.928;25.556;2023-02-16T13:17:11;100235.53;;;15.74;37.86
11912;BME280;6016;41.928;25.556;2023-02-16T13:19:43;100210.00;;;15.34;38.97
11912;BME280;6016;41.928;25.556;2023-02-16T13:22:21;100205.94;;;15.30;39.30